Time;durP1;ratioP1;P1;durP2;ratioP2;P2;SDS_P1;SDS_P2;PMS_P1;PMS_P2;Temp;Humidity;BMP_temperature;BMP_pressure;BME280_temperature;BME280_humidity;BME280_pressure;Samples;Min_cycle;Max_cycle;Signal;HPM_P1;HPM_P2
2022/04/26 03:38:01;;;;;;;1.90;0.75;;;;;;;7.83;76.30;100831.06;5093121;28;20028;-71
2022/04/26 03:40:27;;;;;;;1.33;0.73;;;;;;;7.75;76.80;100831.94;5074585;28;20032;-71
2022/04/26 03:42:53;;;;;;;1.33;1.23;;;;;;;7.69;77.24;100835.91;5094995;28;20035;-71
2022/04/26 03:45:18;;;;;;;1.13;0.60;;;;;;;7.61;78.53;100836.78;5093878;28;20388;-71
2022/04/26 03:47:44;;;;;;;1.05;0.95;;;;;;;7.60;78.43;100838.69;5092573;28;20063;-71
2022/04/26 03:50:09;;;;;;;2.30;0.90;;;;;;;7.68;77.72;100842.41;5090702;28;20032;-71
2022/04/26 03:52:34;;;;;;;1.20;0.73;;;;;;;7.72;77.79;100843.31;5072420;28;20036;-71
2022/04/26 03:55:03;;;;;;;4.40;0.65;;;;;;;7.70;77.73;100845.53;5106765;28;20036;-71
2022/04/26 03:57:28;;;;;;;1.17;0.68;;;;;;;7.67;78.31;100855.03;5102566;28;20028;-71
2022/04/26 03:59:54;;;;;;;3.13;1.17;;;;;;;7.61;79.13;100850.19;5093532;28;20043;-71
2022/04/26 04:02:19;;;;;;;1.17;1.00;;;;;;;7.59;79.18;100841.72;5105005;28;20027;-71
2022/04/26 04:04:45;;;;;;;2.90;1.35;;;;;;;7.53;79.56;100843.78;5088930;28;20084;-71
2022/04/26 04:07:10;;;;;;;0.68;0.68;;;;;;;7.57;79.76;100842.03;5101066;28;20412;-72
2022/04/26 04:09:36;;;;;;;0.77;0.70;;;;;;;7.55;80.06;100841.56;5085564;28;20048;-71
2022/04/26 04:12:01;;;;;;;1.92;0.80;;;;;;;7.57;80.32;100843.94;5106585;22;20040;-58
2022/04/26 04:14:28;;;;;;;0.85;0.57;;;;;;;7.65;79.61;100848.41;5084350;28;20035;-58
2022/04/26 04:16:55;;;;;;;2.85;1.15;;;;;;;7.67;80.06;100843.50;5085846;28;20040;-60
2022/04/26 04:19:21;;;;;;;0.93;0.75;;;;;;;7.71;80.09;100849.78;5052717;28;20033;-58
2022/04/26 04:21:50;;;;;;;6.35;1.77;;;;;;;7.65;80.30;100851.09;5069994;28;20032;-61
2022/04/26 04:24:17;;;;;;;0.55;0.55;;;;;;;7.67;80.70;100854.22;5070680;28;20032;-61
2022/04/26 04:26:43;;;;;;;2.50;1.67;;;;;;;7.70;80.95;100840.97;5067638;28;20040;-61
2022/04/26 04:29:09;;;;;;;1.15;1.02;;;;;;;7.69;80.78;100857.38;5075312;28;20037;-61
2022/04/26 04:31:35;;;;;;;1.30;0.93;;;;;;;7.78;80.05;100850.81;5082031;28;20478;-61
2022/04/26 04:34:02;;;;;;;1.27;1.10;;;;;;;7.76;79.84;100846.91;5078063;28;20035;-59
2022/04/26 04:36:27;;;;;;;1.48;1.13;;;;;;;7.77;79.83;100856.50;5081078;28;20028;-61
2022/04/26 04:38:53;;;;;;;2.15;1.02;;;;;;;7.77;79.75;100856.50;5087390;28;20028;-59
2022/04/26 04:41:19;;;;;;;1.50;0.95;;;;;;;7.81;79.51;100855.53;5087065;28;20111;-57
2022/04/26 04:43:45;;;;;;;1.98;1.20;;;;;;;7.84;79.72;100860.22;5091753;28;20120;-59
2022/04/26 04:46:11;;;;;;;0.80;0.47;;;;;;;7.85;80.54;100864.47;5080779;28;20363;-57
2022/04/26 04:48:36;;;;;;;2.33;1.30;;;;;;;7.84;80.66;100870.16;5092288;28;20534;-57
2022/04/26 04:51:02;;;;;;;0.75;0.60;;;;;;;7.87;80.95;100867.59;5071420;28;20097;-59
2022/04/26 04:53:27;;;;;;;1.13;0.98;;;;;;;7.93;80.83;100871.66;5071627;28;20119;-57
2022/04/26 04:55:53;;;;;;;1.77;1.08;;;;;;;7.91;81.25;100873.09;5087215;28;20036;-59
2022/04/26 04:58:18;;;;;;;0.47;0.47;;;;;;;7.91;81.01;100878.44;5089124;28;20090;-60
2022/04/26 05:00:44;;;;;;;2.38;1.00;;;;;;;7.92;82.13;100872.75;5061828;28;20581;-61
2022/04/26 05:03:10;;;;;;;1.55;1.17;;;;;;;7.95;82.48;100874.78;5084794;28;20532;-60
2022/04/26 05:05:35;;;;;;;2.75;1.00;;;;;;;7.98;82.12;100870.63;5086636;28;20395;-61
2022/04/26 05:08:01;;;;;;;0.75;0.73;;;;;;;8.07;81.85;100866.75;5063993;28;20036;-60
2022/04/26 05:10:29;;;;;;;4.15;1.17;;;;;;;8.18;81.40;100877.84;5083762;28;20037;-61
2022/04/26 05:12:54;;;;;;;0.63;0.63;;;;;;;8.23;81.28;100878.41;5086534;28;20407;-59
2022/04/26 05:15:20;;;;;;;1.15;1.10;;;;;;;8.35;81.52;100882.25;5090172;28;20048;-61
2022/04/26 05:17:45;;;;;;;1.15;0.82;;;;;;;8.42;80.98;100885.94;5073502;28;20033;-57
2022/04/26 05:20:11;;;;;;;1.33;1.20;;;;;;;8.54;80.96;100896.69;5090305;28;20043;-60
2022/04/26 05:25:21;;;;;;;1.38;1.00;;;;;;;8.79;79.51;100900.16;5096013;28;20509;-60
2022/04/26 05:27:47;;;;;;;2.80;1.20;;;;;;;8.89;78.48;100905.06;5090828;28;20127;-61
2022/04/26 05:30:12;;;;;;;1.20;0.50;;;;;;;9.01;78.65;100899.69;5086317;28;20112;-67
2022/04/26 05:32:38;;;;;;;1.75;1.27;;;;;;;9.21;78.78;100889.94;5074001;28;20317;-61
2022/04/26 05:35:04;;;;;;;1.67;1.00;;;;;;;9.88;76.89;100896.09;5086948;28;20058;-61
2022/04/26 05:37:31;;;;;;;0.73;0.73;;;;;;;10.74;73.38;100900.59;5079274;28;20032;-61
2022/04/26 05:40:03;;;;;;;1.83;1.40;;;;;;;11.41;69.32;100914.78;5083651;28;20092;-60
2022/04/26 05:42:29;;;;;;;2.60;1.10;;;;;;;11.69;67.97;100901.91;5074381;28;20447;-61
2022/04/26 05:44:56;;;;;;;1.58;1.02;;;;;;;12.03;67.10;100906.41;5077304;28;20033;-61
2022/04/26 05:47:21;;;;;;;1.20;0.98;;;;;;;12.45;64.33;100909.06;5071501;28;20032;-60
2022/04/26 05:49:47;;;;;;;2.05;1.35;;;;;;;12.75;62.03;100911.88;5058994;28;20028;-61
2022/04/26 05:52:12;;;;;;;1.55;0.80;;;;;;;12.95;61.38;100908.72;5074410;28;20123;-60
2022/04/26 05:54:38;;;;;;;0.93;0.88;;;;;;;13.25;59.32;100916.91;5084012;28;20028;-61
2022/04/26 05:57:04;;;;;;;2.33;0.90;;;;;;;13.44;57.94;100914.06;5086655;28;20071;-60
2022/04/26 05:59:29;;;;;;;3.35;0.88;;;;;;;13.70;57.80;100915.94;5104764;28;20028;-61
2022/04/26 06:01:55;;;;;;;1.88;1.17;;;;;;;13.89;56.87;100908.44;5090588;28;20034;-61
2022/04/26 06:04:20;;;;;;;6.32;1.45;;;;;;;14.07;57.09;100914.78;5099232;28;20036;-61
2022/04/26 06:06:46;;;;;;;4.20;1.50;;;;;;;14.19;56.22;100922.66;5102695;28;20035;-60
2022/04/26 06:09:13;;;;;;;1.33;0.93;;;;;;;14.34;55.59;100926.34;5079108;28;20036;-61
2022/04/26 06:11:39;;;;;;;2.47;1.30;;;;;;;14.35;55.14;100925.94;5072578;28;20060;-60
2022/04/26 06:14:05;;;;;;;2.88;1.10;;;;;;;14.31;55.97;100935.19;5084800;28;20035;-61
2022/04/26 06:16:31;;;;;;;1.67;1.08;;;;;;;14.37;55.05;100922.88;5085028;28;20048;-62
2022/04/26 06:18:56;;;;;;;1.27;0.75;;;;;;;14.33;55.56;100925.53;5082819;28;20066;-61
2022/04/26 06:21:22;;;;;;;1.08;0.63;;;;;;;14.44;55.00;100926.41;5079818;28;20040;-61
2022/04/26 06:23:47;;;;;;;2.05;1.17;;;;;;;14.39;55.39;100934.09;5077088;28;20091;-60
2022/04/26 06:26:13;;;;;;;1.55;0.75;;;;;;;14.42;55.83;100928.72;5097849;28;20481;-61
2022/04/26 06:28:38;;;;;;;3.47;1.02;;;;;;;14.48;55.39;100937.28;5092058;28;20181;-61
2022/04/26 06:31:05;;;;;;;2.10;1.02;;;;;;;14.48;56.22;100938.06;5071366;28;20284;-61
2022/04/26 06:33:30;;;;;;;0.57;0.52;;;;;;;14.62;56.91;100936.63;5071535;28;20027;-61
2022/04/26 06:35:56;;;;;;;2.28;1.40;;;;;;;14.77;56.11;100930.94;5092779;28;20173;-61
2022/04/26 06:38:24;;;;;;;2.72;0.98;;;;;;;14.97;55.63;100931.47;5089368;28;20032;-62
2022/04/26 06:40:50;;;;;;;2.67;0.90;;;;;;;15.02;55.45;100936.56;5077816;28;20518;-61
2022/04/26 06:43:15;;;;;;;3.08;1.27;;;;;;;14.89;54.63;100938.78;5089298;28;20028;-61
2022/04/26 06:45:41;;;;;;;4.20;1.27;;;;;;;14.67;56.00;100933.59;5092779;28;20160;-60
2022/04/26 06:48:08;;;;;;;3.13;1.30;;;;;;;14.30;57.97;100923.56;5066482;28;20032;-61
2022/04/26 06:50:33;;;;;;;1.70;0.60;;;;;;;14.36;58.22;100926.75;5082699;28;20029;-59
2022/04/26 06:52:59;;;;;;;2.20;0.82;;;;;;;14.14;59.27;100922.22;5072368;28;20505;-61
2022/04/26 06:55:24;;;;;;;1.17;1.08;;;;;;;14.27;59.38;100916.19;5070675;28;20048;-61
2022/04/26 06:57:50;;;;;;;2.88;0.65;;;;;;;14.38;59.16;100924.44;5088865;28;20118;-61
2022/04/26 07:00:16;;;;;;;0.90;0.50;;;;;;;14.39;58.99;100913.22;5092627;28;20110;-61
2022/04/26 07:02:49;;;;;;;1.00;0.70;;;;;;;14.63;57.92;100927.34;5082353;28;20072;-60
2022/04/26 07:05:17;;;;;;;1.63;0.80;;;;;;;14.54;59.78;100935.03;5076312;28;20105;-61
2022/04/26 07:07:43;;;;;;;2.42;1.20;;;;;;;14.84;59.87;100932.94;5090090;28;20024;-59
2022/04/26 07:10:10;;;;;;;1.17;0.77;;;;;;;14.99;58.93;100934.59;5067460;28;20036;-60
2022/04/26 07:12:36;;;;;;;1.65;1.08;;;;;;;15.09;59.42;100942.03;5086342;28;20036;-60
2022/04/26 07:15:03;;;;;;;1.83;1.00;;;;;;;15.27;59.67;100929.38;5070628;28;20304;-63
2022/04/26 07:17:28;;;;;;;1.80;0.85;;;;;;;15.48;59.02;100945.00;5087343;28;20035;-60
2022/04/26 07:19:54;;;;;;;2.63;0.95;;;;;;;15.48;57.08;100937.63;5072460;28;20036;-62
2022/04/26 07:22:19;;;;;;;2.88;1.00;;;;;;;15.64;57.91;100940.03;5080047;28;20150;-64
2022/04/26 07:24:45;;;;;;;1.40;0.68;;;;;;;15.79;58.30;100945.16;5073059;28;20444;-60
2022/04/26 07:27:11;;;;;;;1.33;0.73;;;;;;;15.95;57.81;100947.53;5082434;28;20031;-61
2022/04/26 07:29:43;;;;;;;2.03;1.00;;;;;;;16.10;56.92;100949.88;5050843;28;20039;-63
2022/04/26 07:32:09;;;;;;;2.63;0.88;;;;;;;16.19;56.41;100957.69;5052051;28;21135;-59
2022/04/26 07:34:35;;;;;;;0.98;0.90;;;;;;;16.26;56.99;100963.13;5059669;28;20032;-60
2022/04/26 07:37:04;;;;;;;1.08;0.98;;;;;;;16.40;56.38;100963.16;5069936;28;20024;-60
2022/04/26 07:39:30;;;;;;;4.15;0.98;;;;;;;16.23;56.95;100963.91;5076212;28;20391;-60
2022/04/26 07:41:56;;;;;;;2.08;1.17;;;;;;;16.39;57.00;100963.56;5067100;28;20024;-60
2022/04/26 07:44:22;;;;;;;3.13;0.90;;;;;;;16.44;57.02;100958.50;5066666;28;20108;-61
2022/04/26 07:46:49;;;;;;;1.52;1.00;;;;;;;16.63;56.27;100965.53;5083314;28;20060;-60
2022/04/26 07:49:16;;;;;;;2.25;1.27;;;;;;;16.67;56.39;100967.09;5074007;28;20036;-61
2022/04/26 07:51:42;;;;;;;1.00;0.65;;;;;;;16.81;56.89;100971.78;5084824;28;20530;-60
2022/04/26 07:54:08;;;;;;;2.25;1.27;;;;;;;16.82;56.20;100976.06;5110934;28;20024;-58
2022/04/26 07:56:34;;;;;;;2.25;1.15;;;;;;;16.73;56.36;100975.66;5102405;28;20470;-60
2022/04/26 07:59:01;;;;;;;6.07;1.70;;;;;;;16.87;56.00;100976.44;5107062;28;20050;-60
2022/04/26 08:01:28;;;;;;;1.70;0.93;;;;;;;17.00;56.06;100979.53;5080607;28;20027;-61
2022/04/26 08:03:54;;;;;;;4.28;1.52;;;;;;;17.08;55.93;100978.38;5103833;28;20034;-60
2022/04/26 08:06:20;;;;;;;2.03;1.10;;;;;;;17.09;56.15;100977.97;5104532;28;20031;-61
2022/04/26 08:08:45;;;;;;;3.85;1.45;;;;;;;17.27;55.99;100971.72;5111962;28;20406;-61
2022/04/26 08:11:23;;;;;;;1.85;1.02;;;;;;;17.59;53.68;100975.97;5091726;28;20039;-61
2022/04/26 08:13:48;;;;;;;1.00;0.80;;;;;;;17.85;53.18;100977.41;5110902;28;20417;-59
2022/04/26 08:16:14;;;;;;;2.28;0.88;;;;;;;17.73;52.54;100973.19;5092465;28;20044;-61
2022/04/26 08:18:40;;;;;;;1.77;0.77;;;;;;;17.59;51.96;100978.69;5100300;28;20046;-60
2022/04/26 08:21:07;;;;;;;2.42;1.05;;;;;;;17.73;51.67;100986.03;5091058;28;20031;-61
2022/04/26 08:23:34;;;;;;;2.47;0.95;;;;;;;17.52;51.76;100992.31;5107137;28;20040;-60
2022/04/26 08:28:45;;;;;;;1.80;0.90;;;;;;;17.78;51.10;100989.13;5062899;28;20367;-61
2022/04/26 08:31:11;;;;;;;1.75;0.95;;;;;;;17.87;50.27;100984.03;5097922;28;20089;-61
2022/04/26 08:33:37;;;;;;;2.67;1.25;;;;;;;18.19;50.56;100991.28;5116663;28;20031;-61
2022/04/26 08:36:03;;;;;;;3.42;0.88;;;;;;;18.02;51.16;100990.97;5105489;28;20446;-62
2022/04/26 08:38:28;;;;;;;1.33;1.00;;;;;;;18.40;49.39;100991.16;5094340;28;20074;-61
2022/04/26 08:40:54;;;;;;;2.38;1.05;;;;;;;18.14;49.24;100987.00;5079648;28;20053;-60
2022/04/26 08:43:19;;;;;;;2.22;1.20;;;;;;;18.21;49.37;100997.13;5088429;28;20305;-61
2022/04/26 08:45:47;;;;;;;1.30;0.65;;;;;;;18.30;49.92;100994.72;5085016;28;20247;-60
2022/04/26 08:51:03;;;;;;;2.40;0.98;;;;;;;18.51;48.42;100994.63;5098088;28;20046;-62
2022/04/26 08:53:31;;;;;;;1.73;1.00;;;;;;;18.66;47.28;101001.56;5095649;28;20505;-60
2022/04/26 08:56:01;;;;;;;1.08;0.63;;;;;;;18.87;48.21;100995.94;5107884;28;20039;-60
2022/04/26 08:58:29;;;;;;;4.75;1.00;;;;;;;18.78;48.00;101003.78;5103368;28;20028;-60
2022/04/26 09:01:03;;;;;;;0.82;0.73;;;;;;;19.08;48.48;101011.34;5100983;28;20046;-60
2022/04/26 09:03:30;;;;;;;1.25;0.77;;;;;;;19.20;47.60;101008.88;5070731;28;20966;-60
2022/04/26 09:06:13;;;;;;;1.48;0.90;;;;;;;19.22;47.42;101009.25;5077475;28;20021;-61
2022/04/26 09:08:40;;;;;;;1.95;0.90;;;;;;;19.24;47.87;101009.63;5058964;28;20390;-61
2022/04/26 09:11:24;;;;;;;1.75;1.00;;;;;;;19.48;47.75;101013.34;5092795;28;20059;-61
2022/04/26 09:13:50;;;;;;;2.60;0.95;;;;;;;19.66;46.61;101014.72;5088114;28;20036;-61
2022/04/26 09:16:18;;;;;;;0.90;0.68;;;;;;;19.83;46.10;101014.91;5095664;28;20024;-61
2022/04/26 09:18:51;;;;;;;3.28;1.13;;;;;;;19.69;44.25;101008.41;5099519;28;20042;-61
2022/04/26 09:25:07;;;;;;;2.35;0.80;;;;;;;19.84;44.73;101013.72;5081092;28;20043;-61
2022/04/26 09:27:38;;;;;;;1.75;0.63;;;;;;;19.69;44.69;101013.09;5063007;28;20036;-61
2022/04/26 09:30:12;;;;;;;1.05;0.50;;;;;;;19.55;44.39;101014.03;5093515;28;20091;-60
2022/04/26 09:32:49;;;;;;;1.95;0.60;;;;;;;19.58;44.19;101001.53;5103080;28;20036;-60
2022/04/26 09:35:18;;;;;;;2.40;0.90;;;;;;;19.06;43.88;101000.84;5088605;28;20036;-60
2022/04/26 09:37:44;;;;;;;1.30;0.82;;;;;;;18.54;45.36;101000.03;5061095;28;20040;-61
2022/04/26 09:40:11;;;;;;;1.73;0.82;;;;;;;18.29;44.83;101007.56;5086194;28;20027;-61
2022/04/26 09:42:37;;;;;;;2.13;0.65;;;;;;;18.22;46.72;101001.38;5062573;28;20044;-59
2022/04/26 09:45:04;;;;;;;1.30;0.75;;;;;;;18.41;47.45;101006.34;5068871;28;20344;-60
2022/04/26 09:47:37;;;;;;;2.42;0.70;;;;;;;19.13;45.57;100999.97;5090300;28;20055;-60
2022/04/26 09:50:09;;;;;;;2.92;0.77;;;;;;;19.40;44.01;101007.16;5089134;28;20036;-59
2022/04/26 09:52:36;;;;;;;5.20;0.90;;;;;;;19.38;45.01;101001.34;5084879;28;20039;-60
2022/04/26 09:55:06;;;;;;;1.98;0.88;;;;;;;19.63;42.96;100995.59;5075892;28;20036;-60
2022/04/26 09:57:38;;;;;;;2.38;0.70;;;;;;;19.85;43.27;101002.38;5072567;28;20159;-60
2022/04/26 10:00:07;;;;;;;1.63;0.80;;;;;;;19.83;41.87;101006.69;5087473;28;20115;-63
2022/04/26 10:02:36;;;;;;;1.30;0.80;;;;;;;20.08;43.08;101009.91;5084173;28;20117;-60
2022/04/26 10:05:05;;;;;;;1.25;0.80;;;;;;;19.94;41.85;101005.38;5081491;28;20074;-61
2022/04/26 10:08:14;;;;;;;2.53;0.90;;;;;;;20.14;41.23;101009.03;5069983;28;20027;-60
2022/04/26 10:10:41;;;;;;;1.40;0.60;;;;;;;20.32;43.40;101004.16;5106869;28;20124;-61
2022/04/26 10:15:51;;;;;;;0.52;0.38;;;;;;;21.03;41.72;101017.56;5095339;28;20040;-60
2022/04/26 10:18:34;;;;;;;1.27;0.57;;;;;;;20.63;40.23;101013.09;5086759;28;20122;-60
2022/04/26 10:21:04;;;;;;;1.83;0.77;;;;;;;20.41;41.64;101011.84;5084609;28;20486;-61
2022/04/26 10:26:13;;;;;;;1.55;0.90;;;;;;;20.88;38.82;101018.94;5174895;22;20060;-61
2022/04/26 10:28:50;;;;;;;2.28;0.80;;;;;;;20.63;38.67;101011.09;5051277;28;20088;-60
2022/04/26 10:31:17;;;;;;;2.72;0.90;;;;;;;20.18;40.04;101018.00;5047055;28;20051;-59
2022/04/26 10:33:44;;;;;;;3.10;0.88;;;;;;;20.20;41.13;101012.91;5049144;28;20446;-60
2022/04/26 10:36:19;;;;;;;2.88;0.98;;;;;;;20.60;40.76;101006.47;5052542;28;20041;-60
2022/04/26 10:39:14;;;;;;;1.75;0.90;;;;;;;20.88;40.80;101013.47;5036343;28;20342;-61
2022/04/26 10:41:41;;;;;;;1.25;0.52;;;;;;;20.97;39.94;101018.41;5051742;28;20573;-61
2022/04/26 10:44:27;;;;;;;1.92;0.75;;;;;;;20.87;39.63;101020.13;5029988;28;20041;-60
2022/04/26 10:46:53;;;;;;;0.70;0.55;;;;;;;20.95;40.41;101018.81;5033816;28;20055;-60
2022/04/26 10:49:22;;;;;;;3.03;0.73;;;;;;;21.23;40.73;101021.13;5032341;28;20033;-59
2022/04/26 10:51:48;;;;;;;1.85;0.90;;;;;;;21.53;39.15;101014.69;5046900;28;20041;-60
2022/04/26 10:54:13;;;;;;;1.85;0.65;;;;;;;21.42;37.67;101017.66;5040590;28;20048;-61
2022/04/26 10:56:39;;;;;;;1.83;0.90;;;;;;;20.75;38.25;101015.22;5043897;28;20041;-60
2022/04/26 10:59:12;;;;;;;1.65;1.00;;;;;;;20.57;39.44;101015.50;5038945;28;20531;-61
2022/04/26 11:01:39;;;;;;;1.65;0.80;;;;;;;20.57;40.72;101017.47;5042008;28;20028;-62
2022/04/26 11:04:05;;;;;;;1.02;0.57;;;;;;;21.11;40.27;101019.00;5047398;28;20476;-62
2022/04/26 11:06:32;;;;;;;1.88;0.80;;;;;;;21.26;38.94;101020.28;5052380;28;20125;-61
2022/04/26 11:09:06;;;;;;;3.22;0.43;;;;;;;21.31;38.46;101025.28;5034443;28;20120;-61
2022/04/26 11:11:51;;;;;;;1.95;0.85;;;;;;;20.64;39.15;101018.13;5057800;28;20032;-62
2022/04/26 11:14:20;;;;;;;0.90;0.60;;;;;;;20.64;39.30;101028.31;5046440;28;20101;-62
2022/04/26 11:16:54;;;;;;;2.20;1.02;;;;;;;20.13;39.80;101031.34;5042597;28;20041;-60
2022/04/26 11:19:43;;;;;;;1.75;1.00;;;;;;;19.82;39.05;101021.56;5044866;28;20483;-61
2022/04/26 11:22:13;;;;;;;1.88;0.80;;;;;;;19.57;39.81;101027.28;5031662;28;20029;-60
2022/04/26 11:30:10;;;;;;;1.88;0.70;;;;;;;20.95;39.39;101035.25;5046539;28;20507;-61
2022/04/26 11:32:43;;;;;;;2.60;1.00;;;;;;;21.14;37.54;101031.06;5050413;28;20045;-62
2022/04/26 11:35:16;;;;;;;1.67;0.70;;;;;;;21.32;38.10;101028.78;5036237;28;20037;-62
2022/04/26 11:37:45;;;;;;;1.35;0.68;;;;;;;21.99;37.46;101033.78;5045269;28;20045;-62
2022/04/26 11:40:11;;;;;;;0.50;0.50;;;;;;;22.26;36.89;101037.16;5050355;28;20032;-61
2022/04/26 11:42:37;;;;;;;1.17;0.60;;;;;;;22.51;36.19;101046.81;5036113;28;20105;-61
2022/04/26 11:45:05;;;;;;;1.17;0.57;;;;;;;22.60;37.68;101034.09;5035522;28;20102;-60
2022/04/26 11:47:46;;;;;;;1.52;0.77;;;;;;;22.47;37.05;101040.63;5044134;28;20373;-61
2022/04/26 11:50:14;;;;;;;1.52;0.68;;;;;;;22.06;37.00;101043.88;5048220;28;20140;-61
2022/04/26 11:52:40;;;;;;;0.60;0.50;;;;;;;21.34;37.15;101048.34;5032880;28;20065;-62
2022/04/26 11:55:07;;;;;;;1.90;0.88;;;;;;;21.58;37.05;101046.34;5030177;28;20044;-61
2022/04/26 11:57:32;;;;;;;1.20;0.70;;;;;;;20.94;37.39;101041.16;5037810;28;20455;-61
2022/04/26 11:59:59;;;;;;;1.13;0.80;;;;;;;20.86;37.69;101043.22;5025531;28;20037;-60
2022/04/26 12:02:26;;;;;;;1.52;0.75;;;;;;;21.04;38.90;101040.25;5038834;28;20037;-62
2022/04/26 12:04:53;;;;;;;2.05;0.75;;;;;;;21.17;36.93;101039.25;5039090;28;20033;-63
2022/04/26 12:07:22;;;;;;;0.77;0.52;;;;;;;20.64;37.36;101036.53;5037387;28;20029;-61
2022/04/26 12:09:47;;;;;;;1.95;0.90;;;;;;;20.65;37.50;101040.81;5016551;28;20029;-61
2022/04/26 12:12:13;;;;;;;1.48;0.90;;;;;;;20.56;37.85;101043.28;5034662;28;20403;-62
2022/04/26 12:14:42;;;;;;;1.40;0.70;;;;;;;20.67;38.03;101036.47;5030702;28;20119;-61
2022/04/26 12:17:26;;;;;;;1.02;0.65;;;;;;;21.33;38.24;101044.81;5039860;28;20044;-62
2022/04/26 12:19:52;;;;;;;1.75;0.88;;;;;;;21.55;37.65;101035.03;5044792;28;20025;-62
2022/04/26 12:22:19;;;;;;;3.55;1.08;;;;;;;21.13;38.35;101037.75;5043343;28;20400;-62
2022/04/26 12:24:50;;;;;;;2.28;0.80;;;;;;;21.56;37.43;101033.06;5045360;28;20036;-62
2022/04/26 12:27:19;;;;;;;3.10;0.75;;;;;;;21.96;36.84;101042.09;5045960;28;20032;-62
2022/04/26 12:29:50;;;;;;;1.48;0.57;;;;;;;21.88;37.14;101043.44;5023348;28;20048;-61
2022/04/26 12:32:20;;;;;;;1.63;0.65;;;;;;;21.78;36.54;101044.38;5043842;28;20544;-62
2022/04/26 12:34:50;;;;;;;2.72;0.63;;;;;;;21.83;35.90;101041.97;5043215;28;20090;-62
2022/04/26 12:37:23;;;;;;;2.65;0.85;;;;;;;21.86;36.59;101043.09;5045930;28;20435;-62
2022/04/26 12:39:52;;;;;;;0.70;0.40;;;;;;;21.77;35.97;101038.16;5031645;28;20025;-62
2022/04/26 12:42:27;;;;;;;1.63;0.73;;;;;;;21.41;38.17;101038.03;5040987;28;20056;-62
2022/04/26 12:44:57;;;;;;;1.80;0.98;;;;;;;21.29;37.50;101046.09;5044535;28;20059;-61
2022/04/26 12:50:28;;;;;;;0.95;0.55;;;;;;;20.69;38.54;101033.34;5043111;28;20490;-60
2022/04/26 12:52:56;;;;;;;1.48;0.70;;;;;;;20.87;38.62;101033.03;5036365;28;20387;-62
2022/04/26 12:55:36;;;;;;;0.98;0.70;;;;;;;20.97;37.49;101041.09;5025622;28;20040;-62
2022/04/26 12:58:09;;;;;;;1.23;0.67;;;;;;;20.52;37.73;101034.34;5043602;28;20039;-62
2022/04/26 13:00:46;;;;;;;1.08;0.63;;;;;;;20.53;36.76;101024.97;5043343;28;20291;-60
2022/04/26 13:03:14;;;;;;;0.73;0.52;;;;;;;20.55;37.72;101028.06;5035100;28;20062;-62
2022/04/26 13:05:41;;;;;;;1.35;1.10;;;;;;;20.36;38.11;101032.22;5036750;28;20043;-63
2022/04/26 13:08:08;;;;;;;1.50;0.77;;;;;;;20.37;38.71;101031.03;5012056;28;20608;-62
2022/04/26 13:10:33;;;;;;;1.73;0.47;;;;;;;20.47;38.89;101029.34;5044319;28;20083;-62
2022/04/26 13:13:00;;;;;;;1.10;0.80;;;;;;;20.38;37.88;101029.84;5040940;28;20107;-62
2022/04/26 13:15:27;;;;;;;1.80;0.80;;;;;;;20.46;37.80;101027.81;5026041;28;20044;-62
2022/04/26 13:17:57;;;;;;;1.10;0.60;;;;;;;21.25;38.26;101029.69;5050797;28;20029;-62
2022/04/26 13:20:22;;;;;;;2.47;0.52;;;;;;;21.38;37.99;101033.38;5042789;28;20030;-62
2022/04/26 13:22:48;;;;;;;1.38;0.63;;;;;;;21.35;37.60;101031.47;5045671;28;20350;-62
2022/04/26 13:25:13;;;;;;;2.53;0.80;;;;;;;21.09;36.34;101021.38;5041366;28;20578;-61
2022/04/26 13:27:39;;;;;;;1.83;0.90;;;;;;;21.01;37.46;101025.41;5048991;28;20040;-61
2022/04/26 13:30:08;;;;;;;1.40;1.00;;;;;;;20.91;37.87;101029.06;5053496;28;20054;-61
2022/04/26 13:32:34;;;;;;;2.17;0.68;;;;;;;20.65;39.32;101022.41;5050825;28;20029;-63
2022/04/26 13:35:00;;;;;;;1.73;0.85;;;;;;;20.54;39.02;101023.75;5052669;28;20391;-62
2022/04/26 13:37:26;;;;;;;1.75;0.70;;;;;;;20.90;38.33;101027.53;5047488;28;20060;-62
2022/04/26 13:39:54;;;;;;;2.55;1.10;;;;;;;20.65;36.73;101022.41;5059709;28;20499;-63
2022/04/26 13:42:21;;;;;;;1.33;0.82;;;;;;;20.43;37.68;101023.13;5056869;28;20037;-62
2022/04/26 13:44:46;;;;;;;1.38;0.80;;;;;;;20.96;38.35;101027.81;5062690;22;20060;-64
2022/04/26 13:47:13;;;;;;;1.35;0.73;;;;;;;21.20;38.70;101043.88;5049053;28;20529;-64
2022/04/26 13:49:41;;;;;;;0.93;0.65;;;;;;;21.43;37.80;101027.41;5050617;28;20372;-64
2022/04/26 13:52:09;;;;;;;0.88;0.55;;;;;;;21.06;36.78;101030.41;5050787;28;20040;-64
2022/04/26 13:54:35;;;;;;;0.90;0.50;;;;;;;20.99;37.97;101035.97;5049280;28;20467;-64
2022/04/26 13:57:01;;;;;;;1.08;0.70;;;;;;;21.00;37.17;101023.06;5044805;28;20053;-64
2022/04/26 13:59:27;;;;;;;2.00;0.80;;;;;;;21.18;37.15;101035.28;5046969;28;20048;-63
2022/04/26 14:01:54;;;;;;;2.83;0.80;;;;;;;21.44;37.01;101028.97;5050612;28;20107;-64
2022/04/26 14:04:21;;;;;;;0.93;0.55;;;;;;;21.56;36.55;101022.84;5015876;28;20041;-63
2022/04/26 14:06:47;;;;;;;1.45;0.60;;;;;;;21.03;36.01;101034.00;5048135;28;20037;-63
2022/04/26 14:09:12;;;;;;;0.85;0.63;;;;;;;20.99;35.49;101026.97;5051206;28;20067;-64
2022/04/26 14:11:38;;;;;;;2.22;0.68;;;;;;;20.64;36.87;101022.81;5039269;28;20510;-64
2022/04/26 14:22:16;;;;;;;0.82;0.55;;;;;;;20.36;35.77;101021.25;5037642;28;20051;-64
2022/04/26 14:24:42;;;;;;;0.98;0.55;;;;;;;20.34;37.01;101028.34;5048964;28;20112;-64
2022/04/26 14:27:08;;;;;;;1.63;0.75;;;;;;;20.45;36.80;101027.03;5044617;28;20041;-63
2022/04/26 14:29:33;;;;;;;1.88;0.90;;;;;;;20.27;36.88;101025.69;5042439;28;20029;-64
2022/04/26 14:31:59;;;;;;;1.10;0.82;;;;;;;20.22;37.47;101020.69;5028049;28;20049;-63
2022/04/26 14:34:25;;;;;;;1.55;0.82;;;;;;;20.29;36.72;101026.06;5046232;28;20044;-64
2022/04/26 14:36:50;;;;;;;1.17;0.73;;;;;;;20.02;37.30;101017.00;5047725;28;20044;-63
2022/04/26 14:39:16;;;;;;;0.77;0.30;;;;;;;20.07;38.02;101016.56;5042741;28;20052;-64
2022/04/26 14:41:42;;;;;;;0.85;0.50;;;;;;;20.33;37.83;101021.31;5048998;28;20049;-64
2022/04/26 14:44:08;;;;;;;2.45;0.70;;;;;;;20.98;36.86;101025.44;5047890;28;20048;-64
2022/04/26 14:46:36;;;;;;;3.10;0.70;;;;;;;21.38;36.29;101019.69;5047416;28;20033;-64
2022/04/26 14:49:06;;;;;;;0.45;0.40;;;;;;;21.49;36.27;101023.00;5046139;28;20475;-64
2022/04/26 14:51:32;;;;;;;2.25;0.77;;;;;;;21.56;35.33;101024.84;5049460;28;20037;-63
2022/04/26 14:53:58;;;;;;;6.00;1.17;;;;;;;21.61;34.73;101018.06;5050185;28;20358;-64
2022/04/26 14:56:24;;;;;;;1.38;0.80;;;;;;;21.75;35.02;101023.28;5050653;28;20041;-64
2022/04/26 14:58:49;;;;;;;1.33;0.57;;;;;;;21.67;35.06;101022.66;5053955;28;20033;-63
2022/04/26 15:01:18;;;;;;;0.60;0.40;;;;;;;22.00;34.66;101020.84;5042684;28;20719;-63
2022/04/26 15:03:44;;;;;;;1.52;0.82;;;;;;;21.78;35.74;101020.47;5049215;28;20067;-64
2022/04/26 15:06:13;;;;;;;2.13;0.70;;;;;;;21.68;35.43;101024.19;5055850;28;20510;-63
2022/04/26 15:11:23;;;;;;;1.50;0.60;;;;;;;21.72;34.27;101015.94;5045134;28;20476;-65
2022/04/26 15:16:39;;;;;;;0.70;0.55;;;;;;;21.20;35.72;101019.22;5035172;28;20033;-64
2022/04/26 15:19:10;;;;;;;1.60;0.70;;;;;;;21.17;36.73;101006.34;5046147;28;20079;-64
2022/04/26 15:21:36;;;;;;;;;;;;;;;21.35;35.86;101020.50;5040636;28;20179;-65
2022/04/26 15:24:02;;;;;;;1.25;0.85;;;;;;;21.22;34.83;101024.28;5036028;28;20138;-65
2022/04/26 15:26:28;;;;;;;0.70;0.57;;;;;;;21.18;35.10;101024.34;5047167;28;20025;-65
2022/04/26 15:28:56;;;;;;;0.65;0.47;;;;;;;21.00;35.14;101017.59;5034770;28;20029;-62
2022/04/26 15:31:21;;;;;;;1.05;0.65;;;;;;;21.22;35.81;101030.53;5027443;28;20033;-63
2022/04/26 15:33:48;;;;;;;1.27;0.93;;;;;;;21.21;34.96;101023.50;5039023;28;20491;-63
2022/04/26 15:36:16;;;;;;;0.73;0.57;;;;;;;21.39;36.00;101018.47;5040148;28;20065;-63
2022/04/26 15:38:42;;;;;;;0.73;0.63;;;;;;;21.62;35.70;101023.16;5046553;28;20032;-64
2022/04/26 15:41:08;;;;;;;4.03;0.77;;;;;;;21.90;35.43;101021.84;5030593;28;20454;-63
2022/04/26 15:43:34;;;;;;;0.60;0.50;;;;;;;21.94;35.17;101019.81;5049360;28;20071;-63
2022/04/26 15:46:05;;;;;;;1.50;0.68;;;;;;;21.62;35.97;101020.41;5051597;28;20043;-63